createdAt,value
2022-08-23T00:01:40.443Z,2.45
2022-08-23T00:04:12.310Z,2.53
2022-08-23T00:06:40.370Z,2.40
2022-08-23T00:09:11.070Z,2.60
2022-08-23T00:11:42.056Z,2.47
2022-08-23T00:14:12.597Z,2.58
2022-08-23T00:16:42.588Z,2.60
2022-08-23T00:19:13.251Z,2.80
2022-08-23T00:21:42.554Z,2.88
2022-08-23T00:24:14.142Z,3.30
2022-08-23T00:26:57.606Z,2.78
2022-08-23T00:29:28.424Z,3.20
2022-08-23T00:31:56.809Z,2.60
2022-08-23T00:34:25.374Z,2.67
2022-08-23T00:36:53.413Z,3.03
2022-08-23T00:39:23.082Z,3.22
2022-08-23T00:41:52.025Z,2.58
2022-08-23T00:44:42.640Z,2.42
2022-08-23T00:47:31.259Z,2.80
2022-08-23T00:50:19.317Z,2.70
2022-08-23T00:53:03.669Z,2.75
2022-08-23T00:55:35.243Z,2.90
2022-08-23T00:58:04.286Z,3.28
2022-08-23T01:00:35.119Z,3.05
2022-08-23T01:03:07.152Z,3.00
2022-08-23T01:05:47.743Z,2.50
2022-08-23T01:08:15.980Z,2.78
2022-08-23T01:10:52.746Z,2.72
2022-08-23T01:13:31.308Z,3.13
2022-08-23T01:16:03.842Z,3.00
2022-08-23T01:18:33.270Z,2.60
2022-08-23T01:21:10.578Z,2.40
2022-08-23T01:23:46.490Z,2.60
2022-08-23T01:26:21.658Z,2.47
2022-08-23T01:28:52.166Z,2.85
2022-08-23T01:31:22.333Z,2.70
2022-08-23T01:34:00.173Z,2.83
2022-08-23T01:36:29.168Z,3.05
2022-08-23T01:38:59.318Z,3.92
2022-08-23T01:41:27.535Z,2.50
2022-08-23T01:43:56.115Z,3.03
2022-08-23T01:46:30.113Z,2.63
2022-08-23T01:48:58.652Z,2.70
2022-08-23T01:51:30.761Z,2.92
2022-08-23T01:54:01.193Z,2.83
2022-08-23T01:56:39.291Z,3.08
2022-08-23T01:59:13.955Z,3.38
2022-08-23T02:01:47.558Z,3.10
2022-08-23T02:04:16.846Z,2.92
2022-08-23T02:06:45.142Z,2.90
2022-08-23T02:09:18.965Z,2.67
2022-08-23T02:11:48.761Z,2.67
2022-08-23T02:14:20.413Z,2.97
2022-08-23T02:17:04.460Z,2.53
2022-08-23T02:19:35.021Z,2.80
2022-08-23T02:22:05.298Z,2.70
2022-08-23T02:24:35.667Z,3.83
2022-08-23T02:27:06.272Z,2.45
2022-08-23T02:29:39.374Z,2.80
2022-08-23T02:32:11.010Z,2.85
2022-08-23T02:34:41.451Z,2.85
2022-08-23T02:37:13.104Z,2.90
2022-08-23T02:39:44.383Z,3.05
2022-08-23T02:42:14.552Z,2.80
2022-08-23T02:44:44.856Z,2.95
2022-08-23T02:47:12.892Z,3.05
2022-08-23T02:52:14.432Z,2.90
2022-08-23T02:54:45.461Z,3.03
2022-08-23T02:57:13.393Z,2.90
2022-08-23T02:59:42.145Z,3.20
2022-08-23T03:02:10.298Z,3.15
2022-08-23T03:04:42.732Z,2.70
2022-08-23T03:07:10.883Z,2.92
2022-08-23T03:09:39.595Z,2.90
2022-08-23T03:12:10.941Z,3.08
2022-08-23T03:14:44.803Z,3.20
2022-08-23T03:17:14.602Z,3.50
2022-08-23T03:19:42.566Z,3.08
2022-08-23T03:22:11.216Z,2.80
2022-08-23T03:24:39.430Z,3.33
2022-08-23T03:27:09.348Z,3.22
2022-08-23T03:29:38.741Z,3.28
2022-08-23T03:32:07.398Z,3.00
2022-08-23T03:37:10.529Z,2.95
2022-08-23T03:39:39.097Z,3.13
2022-08-23T03:42:09.554Z,2.92
2022-08-23T03:44:38.020Z,3.10
2022-08-23T03:47:07.267Z,3.38
2022-08-23T03:49:36.369Z,2.78
2022-08-23T03:52:05.880Z,2.63
2022-08-23T03:54:34.171Z,2.90
2022-08-23T03:57:08.614Z,3.10
2022-08-23T03:59:40.647Z,2.72
2022-08-23T04:02:11.183Z,3.00
2022-08-23T04:04:40.799Z,3.05
2022-08-23T04:07:28.190Z,3.25
2022-08-23T04:09:59.348Z,2.95
2022-08-23T04:12:32.827Z,3.30
2022-08-23T04:15:02.769Z,3.10
2022-08-23T04:17:34.400Z,3.88
2022-08-23T04:20:03.724Z,3.85
2022-08-23T04:22:34.903Z,3.47
2022-08-23T04:25:03.658Z,3.28
2022-08-23T04:27:33.106Z,3.42
2022-08-23T04:30:02.687Z,3.47
2022-08-23T04:32:31.276Z,4.45
2022-08-23T04:35:03.250Z,3.30
2022-08-23T04:37:31.674Z,3.45
2022-08-23T04:40:17.215Z,3.50
2022-08-23T04:42:45.503Z,3.33
2022-08-23T04:45:16.108Z,3.40
2022-08-23T04:47:48.079Z,3.20
2022-08-23T04:50:17.151Z,3.35
2022-08-23T04:53:11.899Z,3.55
2022-08-23T04:55:52.505Z,3.95
2022-08-23T04:58:21.354Z,3.45
2022-08-23T05:00:53.092Z,3.10
2022-08-23T05:03:27.133Z,3.80
2022-08-23T05:05:58.268Z,3.47
2022-08-23T05:08:33.189Z,4.07
2022-08-23T05:11:05.099Z,3.22
2022-08-23T05:13:36.764Z,3.28
2022-08-23T05:16:09.926Z,3.08
2022-08-23T05:18:43.895Z,3.60
2022-08-23T05:21:16.069Z,3.20
2022-08-23T05:23:45.477Z,3.42
2022-08-23T05:26:23.239Z,2.95
2022-08-23T05:28:51.858Z,3.45
2022-08-23T05:31:29.532Z,2.90
2022-08-23T05:34:03.877Z,3.53
2022-08-23T05:36:55.972Z,2.90
2022-08-23T05:39:37.023Z,2.90
2022-08-23T05:42:08.993Z,2.97
2022-08-23T05:44:38.024Z,2.75
2022-08-23T05:47:15.089Z,2.83
2022-08-23T05:50:02.987Z,3.17
2022-08-23T05:52:35.453Z,2.83
2022-08-23T05:55:03.876Z,3.13
2022-08-23T05:58:04.525Z,3.00
2022-08-23T06:00:40.412Z,3.00
2022-08-23T06:03:11.669Z,3.00
2022-08-23T06:05:41.849Z,2.90
2022-08-23T06:08:11.767Z,2.97
2022-08-23T06:10:42.371Z,2.92
2022-08-23T06:13:34.336Z,2.90
2022-08-23T06:16:14.154Z,2.83
2022-08-23T06:18:46.623Z,2.67
2022-08-23T06:21:40.806Z,2.97
2022-08-23T06:24:09.420Z,2.75
2022-08-23T06:26:45.906Z,2.70
2022-08-23T06:29:16.587Z,2.58
2022-08-23T06:31:49.377Z,3.10
2022-08-23T06:34:33.490Z,3.03
2022-08-23T06:37:22.036Z,2.53
2022-08-23T06:40:04.977Z,3.13
2022-08-23T06:42:59.720Z,3.28
2022-08-23T06:45:39.852Z,3.20
2022-08-23T06:48:09.735Z,2.70
2022-08-23T06:50:39.257Z,3.10
2022-08-23T06:53:30.533Z,2.80
2022-08-23T06:56:11.750Z,2.78
2022-08-23T06:59:05.951Z,2.70
2022-08-23T07:01:55.300Z,2.67
2022-08-23T07:04:43.868Z,2.38
2022-08-23T07:07:43.911Z,2.63
2022-08-23T07:10:15.139Z,2.85
2022-08-23T07:12:44.063Z,2.70
2022-08-23T07:15:14.322Z,2.45
2022-08-23T07:17:47.378Z,2.92
2022-08-23T07:20:15.972Z,2.42
2022-08-23T07:22:47.272Z,2.70
2022-08-23T07:25:15.562Z,2.30
2022-08-23T07:27:48.951Z,2.35
2022-08-23T07:30:20.421Z,2.70
2022-08-23T07:32:49.157Z,2.58
2022-08-23T07:35:25.016Z,2.70
2022-08-23T07:37:58.507Z,1.98
2022-08-23T07:40:39.195Z,2.60
2022-08-23T07:43:13.178Z,2.25
2022-08-23T07:45:49.020Z,2.13
2022-08-23T07:48:32.009Z,1.77
2022-08-23T07:51:15.061Z,2.25
2022-08-23T07:53:46.135Z,1.80
2022-08-23T07:56:18.716Z,2.13
2022-08-23T07:59:16.831Z,1.85
2022-08-23T08:01:56.796Z,1.85
2022-08-23T08:04:26.089Z,2.20
2022-08-23T08:07:16.806Z,2.15
2022-08-23T08:09:47.372Z,2.17
2022-08-23T08:12:18.239Z,1.90
2022-08-23T08:14:49.369Z,1.90
2022-08-23T08:17:23.114Z,2.00
2022-08-23T08:20:13.512Z,2.00
2022-08-23T08:22:58.549Z,2.20
2022-08-23T08:25:49.152Z,2.03
2022-08-23T08:28:20.442Z,1.90
2022-08-23T08:30:48.819Z,2.00
2022-08-23T08:33:17.308Z,2.10
2022-08-23T08:35:57.795Z,2.22
2022-08-23T08:38:30.591Z,2.08
2022-08-23T08:41:10.646Z,2.55
2022-08-23T08:43:53.926Z,2.13
2022-08-23T08:46:29.715Z,2.40
2022-08-23T08:49:04.832Z,2.30
2022-08-23T08:51:47.402Z,2.20
2022-08-23T08:54:27.274Z,2.33
2022-08-23T08:57:01.301Z,2.00
2022-08-23T08:59:43.862Z,2.33
2022-08-23T09:02:31.911Z,2.13
2022-08-23T09:05:11.038Z,1.80
2022-08-23T09:07:51.713Z,2.17
2022-08-23T09:10:41.245Z,2.10
2022-08-23T09:13:34.879Z,2.10
2022-08-23T09:16:13.632Z,2.45
2022-08-23T09:18:41.798Z,2.55
2022-08-23T09:21:12.195Z,2.50
2022-08-23T09:23:44.200Z,2.10
2022-08-23T09:26:23.303Z,2.10
2022-08-23T09:28:54.986Z,2.20
2022-08-23T09:31:41.999Z,1.90
2022-08-23T09:34:19.440Z,2.22
2022-08-23T09:37:12.606Z,2.30
2022-08-23T09:39:43.625Z,2.20
2022-08-23T09:42:29.745Z,2.55
2022-08-23T09:45:01.339Z,2.50
2022-08-23T09:47:35.806Z,2.35
2022-08-23T09:50:24.360Z,2.42
2022-08-23T09:52:57.459Z,2.83
2022-08-23T09:55:33.242Z,2.70
2022-08-23T09:58:02.871Z,2.20
2022-08-23T10:00:35.779Z,2.65
2022-08-23T10:03:23.494Z,2.50
2022-08-23T10:05:57.078Z,2.63
2022-08-23T10:08:32.848Z,2.20
2022-08-23T10:11:09.151Z,2.42
2022-08-23T10:13:38.105Z,2.80
2022-08-23T10:16:18.225Z,2.55
2022-08-23T10:19:05.407Z,2.60
2022-08-23T10:21:42.722Z,3.15
2022-08-23T10:24:19.824Z,2.80
2022-08-23T10:27:01.454Z,2.50
2022-08-23T10:29:37.475Z,3.00
2022-08-23T10:32:19.128Z,3.00
2022-08-23T10:35:06.495Z,2.65
2022-08-23T10:37:56.938Z,2.47
2022-08-23T10:40:29.708Z,2.90
2022-08-23T10:43:13.887Z,2.67
2022-08-23T10:45:45.836Z,2.75
2022-08-23T10:48:31.928Z,3.30
2022-08-23T10:51:03.888Z,2.72
2022-08-23T10:53:38.596Z,3.08
2022-08-23T10:56:08.222Z,2.58
2022-08-23T10:58:49.344Z,2.70
2022-08-23T11:01:24.415Z,2.67
2022-08-23T11:04:03.796Z,2.95
2022-08-23T11:06:51.107Z,2.70
2022-08-23T11:09:52.760Z,2.47
2022-08-23T11:12:32.133Z,2.22
2022-08-23T11:15:11.850Z,2.60
2022-08-23T11:17:57.046Z,2.58
2022-08-23T11:21:09.023Z,2.60
2022-08-23T11:23:55.340Z,2.42
2022-08-23T11:27:07.526Z,2.60
2022-08-23T11:29:44.300Z,2.15
2022-08-23T11:32:46.698Z,3.03
2022-08-23T11:35:43.336Z,2.35
2022-08-23T11:38:17.301Z,2.38
2022-08-23T11:41:01.129Z,2.40
2022-08-23T11:43:40.134Z,2.38
2022-08-23T11:46:28.061Z,2.22
2022-08-23T11:49:26.110Z,2.50
2022-08-23T11:52:04.182Z,2.50
2022-08-23T11:54:47.474Z,2.65
2022-08-23T12:28:07.551Z,2.60
2022-08-23T12:30:44.443Z,2.63
2022-08-23T12:33:22.989Z,2.50
2022-08-23T12:35:55.721Z,2.75
2022-08-23T12:38:36.690Z,2.70
2022-08-23T12:41:18.865Z,2.53
2022-08-23T12:43:59.251Z,2.97
2022-08-23T12:46:39.593Z,2.50
2022-08-23T12:49:13.285Z,2.72
2022-08-23T12:51:49.650Z,2.80
2022-08-23T12:54:22.542Z,3.10
2022-08-23T12:56:53.347Z,2.70
2022-08-23T12:59:43.570Z,2.53
2022-08-23T13:02:16.336Z,2.80
2022-08-23T13:07:16.453Z,2.80
2022-08-23T13:09:53.947Z,3.03
2022-08-23T13:12:24.644Z,2.88
2022-08-23T13:14:55.524Z,2.67
2022-08-23T13:17:33.676Z,2.83
2022-08-23T13:20:21.919Z,2.85
2022-08-23T13:23:00.241Z,2.47
2022-08-23T13:25:32.317Z,2.53
2022-08-23T13:28:02.359Z,2.90
2022-08-23T13:30:33.907Z,2.75
2022-08-23T13:33:24.202Z,2.50
2022-08-23T13:36:12.944Z,3.00
2022-08-23T13:38:43.813Z,2.60
2022-08-23T13:41:27.601Z,2.72
2022-08-23T13:43:55.951Z,2.60
2022-08-23T13:46:27.574Z,2.55
2022-08-23T13:49:01.496Z,2.55
2022-08-23T13:51:36.782Z,2.45
2022-08-23T13:54:08.679Z,2.50
2022-08-23T13:56:39.311Z,2.75
2022-08-23T13:59:20.587Z,2.60
2022-08-23T14:01:49.889Z,2.90
2022-08-23T14:04:17.682Z,2.80
2022-08-23T14:06:49.030Z,2.60
2022-08-23T14:09:17.428Z,2.55
2022-08-23T14:11:46.223Z,3.33
2022-08-23T14:14:14.116Z,2.55
2022-08-23T14:16:42.789Z,3.03
2022-08-23T14:19:19.141Z,2.30
2022-08-23T14:22:05.833Z,2.15
2022-08-23T14:24:34.124Z,2.28
2022-08-23T14:27:02.542Z,2.80
2022-08-23T14:29:30.715Z,2.80
2022-08-23T14:32:00.294Z,2.60
2022-08-23T14:34:31.288Z,2.53
2022-08-23T14:39:48.186Z,2.72
2022-08-23T14:42:20.575Z,2.85
2022-08-23T14:44:48.603Z,2.65
2022-08-23T14:47:17.471Z,2.63
2022-08-23T14:49:51.997Z,2.10
2022-08-23T14:52:23.176Z,2.38
2022-08-23T14:54:51.569Z,2.97
2022-08-23T14:57:19.435Z,2.88
2022-08-23T14:59:47.567Z,2.40
2022-08-23T15:02:21.925Z,2.70
2022-08-23T15:04:52.136Z,2.72
2022-08-23T15:07:20.115Z,2.70
2022-08-23T15:09:49.245Z,2.40
2022-08-23T15:15:09.410Z,2.50
2022-08-23T15:17:48.273Z,2.45
2022-08-23T15:20:18.205Z,2.72
2022-08-23T15:22:55.300Z,2.75
2022-08-23T15:25:25.482Z,2.60
2022-08-23T15:27:53.766Z,2.80
2022-08-23T15:30:22.899Z,2.50
2022-08-23T15:33:03.662Z,2.72
2022-08-23T15:35:37.787Z,2.50
2022-08-23T15:38:08.054Z,2.80
2022-08-23T15:40:36.582Z,2.58
2022-08-23T15:43:04.869Z,2.80
2022-08-23T15:45:34.421Z,2.80
2022-08-23T15:48:16.603Z,2.55
2022-08-23T15:50:47.518Z,2.60
2022-08-23T15:53:17.237Z,2.90
2022-08-23T15:55:46.853Z,2.75
2022-08-23T15:58:17.662Z,2.42
2022-08-23T16:00:45.887Z,2.40
2022-08-23T16:03:18.649Z,2.42
2022-08-23T16:05:53.588Z,2.90
2022-08-23T16:08:26.252Z,2.60
2022-08-23T16:10:55.047Z,2.50
2022-08-23T16:13:23.306Z,2.33
2022-08-23T16:15:52.330Z,2.63
2022-08-23T16:18:20.640Z,2.38
2022-08-23T16:20:54.531Z,2.70
2022-08-23T16:23:23.299Z,2.20
2022-08-23T16:25:51.669Z,2.70
2022-08-23T16:28:19.616Z,2.88
2022-08-23T16:30:47.954Z,2.70
2022-08-23T16:33:16.479Z,3.05
2022-08-23T16:35:44.489Z,2.78
2022-08-23T16:38:13.978Z,3.60
2022-08-23T16:40:41.948Z,4.20
2022-08-23T16:43:10.051Z,2.90
2022-08-23T16:45:37.911Z,2.60
2022-08-23T16:48:06.255Z,3.08
2022-08-23T16:50:34.567Z,2.70
2022-08-23T16:53:07.273Z,3.00
2022-08-23T16:55:38.164Z,2.63
2022-08-23T16:58:07.803Z,2.70
2022-08-23T17:00:36.695Z,2.78
2022-08-23T17:03:05.863Z,2.42
2022-08-23T17:05:35.947Z,2.38
2022-08-23T17:08:05.111Z,2.38
2022-08-23T17:10:33.652Z,2.58
2022-08-23T17:13:03.860Z,2.58
2022-08-23T17:15:33.975Z,2.33
2022-08-23T17:18:02.043Z,2.50
2022-08-23T17:20:32.714Z,2.58
2022-08-23T17:23:01.029Z,2.60
2022-08-23T17:25:34.475Z,2.55
2022-08-23T17:28:05.081Z,2.80
2022-08-23T17:30:34.512Z,3.15
2022-08-23T17:33:02.879Z,3.00
2022-08-23T17:35:33.662Z,2.70
2022-08-23T17:38:04.720Z,2.42
2022-08-23T17:40:36.343Z,2.75
2022-08-23T17:43:06.487Z,2.83
2022-08-23T17:45:42.637Z,2.70
2022-08-23T17:48:11.448Z,2.40
2022-08-23T17:50:39.565Z,2.95
2022-08-23T17:53:07.913Z,2.47
2022-08-23T17:55:37.629Z,3.20
2022-08-23T17:58:07.710Z,2.80
2022-08-23T18:00:37.576Z,3.10
2022-08-23T18:03:06.410Z,2.78
2022-08-23T18:05:35.944Z,3.15
2022-08-23T18:08:04.436Z,3.03
2022-08-23T18:10:32.474Z,3.53
2022-08-23T18:13:00.947Z,3.50
2022-08-23T18:15:31.684Z,3.42
2022-08-23T18:18:01.131Z,3.00
2022-08-23T18:20:29.993Z,3.13
2022-08-23T18:22:59.777Z,3.30
2022-08-23T18:25:27.981Z,3.47
2022-08-23T18:28:06.898Z,4.28
2022-08-23T18:30:38.903Z,3.67
2022-08-23T18:33:12.491Z,2.92
2022-08-23T18:35:41.175Z,3.50
2022-08-23T18:38:09.727Z,3.55
2022-08-23T18:40:45.257Z,3.05
2022-08-23T18:43:15.073Z,3.40
2022-08-23T18:45:45.341Z,3.28
2022-08-23T18:48:13.673Z,3.67
2022-08-23T18:50:42.997Z,3.55
2022-08-23T18:53:12.540Z,3.88
2022-08-23T18:55:42.308Z,3.47
2022-08-23T18:58:10.548Z,2.92
2022-08-23T19:00:39.782Z,3.10
2022-08-23T19:03:11.038Z,3.50
2022-08-23T19:05:42.238Z,3.28
2022-08-23T19:08:13.478Z,4.07
2022-08-23T19:10:43.924Z,4.13
2022-08-23T19:13:13.069Z,4.35
2022-08-23T19:15:42.010Z,4.00
2022-08-23T19:18:11.174Z,3.72
2022-08-23T19:20:39.115Z,4.15
2022-08-23T19:23:07.615Z,3.67
2022-08-23T19:25:38.428Z,3.83
2022-08-23T19:28:07.056Z,5.55
2022-08-23T19:30:35.326Z,5.10
2022-08-23T19:33:04.796Z,4.50
2022-08-23T19:35:34.841Z,3.97
2022-08-23T19:38:03.191Z,3.97
2022-08-23T19:40:31.364Z,4.07
2022-08-23T19:43:00.589Z,4.28
2022-08-23T19:45:32.025Z,4.05
2022-08-23T19:48:00.548Z,4.57
2022-08-23T19:50:29.567Z,4.28
2022-08-23T19:52:59.540Z,4.07
2022-08-23T19:55:29.180Z,4.53
2022-08-23T19:57:58.294Z,4.20
2022-08-23T20:00:28.735Z,4.18
2022-08-23T20:02:57.076Z,3.80
2022-08-23T20:05:27.329Z,3.88
2022-08-23T20:07:55.685Z,4.05
2022-08-23T20:10:25.448Z,4.53
2022-08-23T20:12:54.017Z,3.70
2022-08-23T20:15:22.312Z,3.90
2022-08-23T20:17:50.410Z,3.90
2022-08-23T20:20:20.746Z,4.15
2022-08-23T20:23:06.039Z,3.97
2022-08-23T20:25:36.716Z,3.65
2022-08-23T20:28:08.295Z,3.88
2022-08-23T20:30:37.685Z,4.00
2022-08-23T20:33:05.582Z,3.70
2022-08-23T20:35:35.267Z,3.92
2022-08-23T20:38:04.519Z,3.50
2022-08-23T20:40:32.731Z,3.80
2022-08-23T20:43:02.674Z,4.03
2022-08-23T20:45:31.156Z,3.70
2022-08-23T20:47:59.544Z,3.28
2022-08-23T20:50:27.442Z,3.42
2022-08-23T20:52:56.607Z,3.60
2022-08-23T20:55:25.167Z,4.22
2022-08-23T20:57:54.776Z,4.82
2022-08-23T21:00:24.506Z,4.22
2022-08-23T21:02:53.351Z,4.13
2022-08-23T21:05:21.363Z,3.95
2022-08-23T21:07:50.095Z,4.10
2022-08-23T21:10:19.763Z,4.13
2022-08-23T21:12:48.441Z,4.03
2022-08-23T21:15:16.250Z,4.68
2022-08-23T21:17:47.673Z,3.92
2022-08-23T21:20:15.686Z,3.58
2022-08-23T21:22:43.991Z,3.50
2022-08-23T21:25:12.463Z,3.53
2022-08-23T21:27:40.675Z,3.33
2022-08-23T21:30:10.442Z,3.60
2022-08-23T21:32:38.841Z,3.50
2022-08-23T21:35:09.563Z,3.58
2022-08-23T21:37:37.431Z,3.47
2022-08-23T21:40:07.548Z,3.30
2022-08-23T21:42:35.736Z,3.80
2022-08-23T21:45:04.511Z,3.67
2022-08-23T21:47:32.315Z,3.50
2022-08-23T21:50:00.344Z,4.53
2022-08-23T21:52:30.239Z,4.05
2022-08-23T21:54:58.251Z,3.97
2022-08-23T21:57:26.310Z,3.70
2022-08-23T21:59:54.319Z,3.70
2022-08-23T22:02:22.740Z,3.88
2022-08-23T22:04:50.729Z,3.53
2022-08-23T22:07:18.588Z,3.40
2022-08-23T22:09:48.642Z,4.00
2022-08-23T22:12:16.993Z,4.05
2022-08-23T22:14:45.572Z,3.90
2022-08-23T22:17:15.225Z,4.07
2022-08-23T22:19:43.131Z,3.88
2022-08-23T22:22:11.439Z,3.97
2022-08-23T22:24:39.483Z,4.25
2022-08-23T22:27:09.163Z,4.03
2022-08-23T22:29:37.729Z,3.88
2022-08-23T22:32:06.080Z,4.13
2022-08-23T22:34:35.569Z,3.80
2022-08-23T22:37:03.458Z,3.63
2022-08-23T22:39:31.676Z,4.20
2022-08-23T22:41:59.539Z,3.85
2022-08-23T22:44:29.669Z,4.03
2022-08-23T22:46:57.957Z,4.10
2022-08-23T22:49:26.271Z,4.28
2022-08-23T22:51:55.466Z,4.45
2022-08-23T22:54:24.750Z,4.13
2022-08-23T22:56:54.355Z,4.00
2022-08-23T22:59:27.522Z,4.15
2022-08-23T23:02:04.248Z,4.00
2022-08-23T23:04:34.240Z,4.28
2022-08-23T23:07:03.122Z,3.75
2022-08-23T23:09:30.905Z,3.92
2022-08-23T23:11:58.985Z,3.83
2022-08-23T23:14:27.439Z,4.03
2022-08-23T23:16:55.446Z,3.63
2022-08-23T23:19:42.891Z,3.88
2022-08-23T23:22:13.725Z,3.80
2022-08-23T23:24:41.890Z,3.70
2022-08-23T23:27:10.125Z,4.68
2022-08-23T23:29:38.462Z,3.67
2022-08-23T23:32:06.744Z,4.05
2022-08-23T23:34:38.078Z,3.85
2022-08-23T23:37:05.906Z,3.67
2022-08-23T23:39:34.703Z,3.60
2022-08-23T23:42:02.708Z,3.97
2022-08-23T23:44:31.637Z,3.45
2022-08-23T23:47:01.819Z,3.60
2022-08-23T23:49:33.138Z,3.92
2022-08-23T23:52:04.238Z,3.33
2022-08-23T23:54:33.829Z,3.78
2022-08-23T23:57:02.261Z,3.60
2022-08-23T23:59:30.257Z,3.45
